createdAt,value
2022-09-23T00:01:07.642Z,98749.03
2022-09-23T00:02:10.942Z,98751.88
2022-09-23T00:03:12.537Z,98751.34
2022-09-23T00:04:13.994Z,98751.28
2022-09-23T00:05:15.885Z,98753.41
2022-09-23T00:06:22.748Z,98747.63
2022-09-23T00:07:24.293Z,98745.44
2022-09-23T00:08:25.737Z,98739.31
2022-09-23T00:09:27.243Z,98743.25
2022-09-23T00:10:31.306Z,98745.66
2022-09-23T00:11:33.139Z,98746.84
2022-09-23T00:12:34.570Z,98743.09
2022-09-23T00:13:36.971Z,98739.38
2022-09-23T00:14:39.513Z,98745.03
2022-09-23T00:15:40.978Z,98740.97
2022-09-23T00:16:42.818Z,98743.09
2022-09-23T00:17:45.253Z,98748.16
2022-09-23T00:18:46.856Z,98746.16
2022-09-23T00:19:48.346Z,98741.63
2022-09-23T00:20:49.776Z,98746.00
2022-09-23T00:21:51.545Z,98741.75
2022-09-23T00:22:53.382Z,98738.13
2022-09-23T00:23:54.821Z,98742.88
2022-09-23T00:24:56.264Z,98743.88
2022-09-23T00:25:59.163Z,98748.22
2022-09-23T00:27:01.901Z,98740.59
2022-09-23T00:28:03.323Z,98744.50
2022-09-23T00:29:04.890Z,98743.59
2022-09-23T00:30:09.041Z,98745.81
2022-09-23T00:31:14.735Z,98749.88
2022-09-23T00:32:16.597Z,98742.00
2022-09-23T00:33:18.160Z,98749.56
2022-09-23T00:34:19.641Z,98744.00
2022-09-23T00:35:21.113Z,98740.63
2022-09-23T00:36:23.112Z,98739.84
2022-09-23T00:37:24.547Z,98740.44
2022-09-23T00:38:25.990Z,98742.00
2022-09-23T00:39:27.393Z,98736.06
2022-09-23T00:40:28.896Z,98738.22
2022-09-23T00:41:30.811Z,98735.00
2022-09-23T00:42:32.253Z,98734.56
2022-09-23T00:43:41.850Z,98731.72
2022-09-23T00:44:55.077Z,98731.44
2022-09-23T00:45:56.731Z,98727.00
2022-09-23T00:46:58.507Z,98723.06
2022-09-23T00:48:02.755Z,98724.16
2022-09-23T00:49:11.179Z,98717.00
2022-09-23T00:50:27.857Z,98725.44
2022-09-23T00:51:37.207Z,98723.91
2022-09-23T00:52:39.525Z,98721.91
2022-09-23T00:53:41.717Z,98727.38
2022-09-23T00:54:44.368Z,98719.56
2022-09-23T00:55:49.086Z,98717.94
2022-09-23T00:56:51.070Z,98709.88
2022-09-23T00:57:56.479Z,98715.91
2022-09-23T00:58:58.014Z,98713.47
2022-09-23T00:59:59.822Z,98714.88
2022-09-23T01:01:03.025Z,98712.56
2022-09-23T01:02:05.698Z,98715.09
2022-09-23T01:03:07.301Z,98710.91
2022-09-23T01:04:09.834Z,98711.38
2022-09-23T01:05:11.440Z,98709.66
2022-09-23T01:06:14.242Z,98709.06
2022-09-23T01:07:15.968Z,98713.72
2022-09-23T01:08:18.456Z,98709.56
2022-09-23T01:09:21.938Z,98720.09
2022-09-23T01:10:24.273Z,98714.78
2022-09-23T01:11:39.162Z,98717.41
2022-09-23T01:13:13.060Z,98715.25
2022-09-23T01:14:47.756Z,98720.25
2022-09-23T01:16:06.400Z,98718.72
2022-09-23T01:17:21.805Z,98719.38
2022-09-23T01:18:41.956Z,98717.06
2022-09-23T01:20:08.465Z,98716.09
2022-09-23T01:21:21.027Z,98704.66
2022-09-23T01:22:53.379Z,98714.75
2022-09-23T01:24:36.259Z,98710.63
2022-09-23T01:26:05.403Z,98710.56
2022-09-23T01:27:19.584Z,98707.94
2022-09-23T01:28:29.171Z,98701.38
2022-09-23T01:29:48.123Z,98707.72
2022-09-23T01:31:05.688Z,98703.38
2022-09-23T01:32:32.502Z,98704.72
2022-09-23T01:33:53.151Z,98710.72
2022-09-23T01:35:23.761Z,98705.34
2022-09-23T01:36:50.054Z,98702.09
2022-09-23T01:38:22.751Z,98707.06
2022-09-23T01:39:55.667Z,98700.44
2022-09-23T01:40:59.996Z,98706.28
2022-09-23T01:42:09.878Z,98708.72
2022-09-23T01:43:20.083Z,98708.28
2022-09-23T01:44:31.160Z,98701.53
2022-09-23T01:45:43.438Z,98701.34
2022-09-23T01:46:55.884Z,98704.72
2022-09-23T01:48:04.831Z,98702.88
2022-09-23T01:49:34.030Z,98703.50
2022-09-23T01:50:56.645Z,98697.97
2022-09-23T01:52:11.628Z,98700.81
2022-09-23T01:53:20.774Z,98698.69
2022-09-23T01:54:45.391Z,98701.13
2022-09-23T01:55:51.582Z,98694.97
2022-09-23T01:57:01.656Z,98697.47
2022-09-23T01:58:09.786Z,98690.38
2022-09-23T01:59:18.591Z,98695.75
2022-09-23T02:00:23.076Z,98693.56
2022-09-23T02:01:32.040Z,98695.72
2022-09-23T02:02:46.724Z,98688.00
2022-09-23T02:03:59.621Z,98691.16
2022-09-23T02:05:26.040Z,98691.34
2022-09-23T02:06:36.352Z,98697.06
2022-09-23T02:08:02.370Z,98690.88
2022-09-23T02:09:12.379Z,98679.47
2022-09-23T02:10:25.778Z,98686.31
2022-09-23T02:11:28.101Z,98696.84
2022-09-23T02:12:34.828Z,98690.25
2022-09-23T02:13:52.456Z,98693.06
2022-09-23T02:15:03.300Z,98695.50
2022-09-23T02:16:12.854Z,98684.88
2022-09-23T02:17:21.429Z,98692.00
2022-09-23T02:18:27.046Z,98685.50
2022-09-23T02:19:40.275Z,98679.06
2022-09-23T02:20:43.225Z,98691.06
2022-09-23T02:21:52.061Z,98684.00
2022-09-23T02:23:06.123Z,98686.63
2022-09-23T02:24:14.587Z,98687.09
2022-09-23T02:25:17.414Z,98679.59
2022-09-23T02:26:22.798Z,98687.41
2022-09-23T02:27:32.707Z,98694.03
2022-09-23T02:28:49.618Z,98686.50
2022-09-23T02:30:09.492Z,98683.25
2022-09-23T02:31:21.606Z,98688.16
2022-09-23T02:32:36.265Z,98682.22
2022-09-23T02:33:59.917Z,98681.28
2022-09-23T02:35:06.579Z,98680.66
2022-09-23T02:36:22.770Z,98680.81
2022-09-23T02:37:43.656Z,98678.19
2022-09-23T02:38:53.569Z,98676.31
2022-09-23T02:40:13.210Z,98681.09
2022-09-23T02:41:32.642Z,98684.75
2022-09-23T02:43:04.283Z,98681.38
2022-09-23T02:44:17.257Z,98680.31
2022-09-23T02:45:18.864Z,98684.75
2022-09-23T02:46:21.648Z,98683.84
2022-09-23T02:47:28.392Z,98682.16
2022-09-23T02:48:35.925Z,98677.56
2022-09-23T02:49:37.527Z,98672.94
2022-09-23T02:50:39.381Z,98678.19
2022-09-23T02:51:41.919Z,98681.28
2022-09-23T02:52:44.116Z,98675.59
2022-09-23T02:53:46.619Z,98675.00
2022-09-23T02:54:48.088Z,98679.03
2022-09-23T02:55:51.024Z,98679.94
2022-09-23T02:56:53.767Z,98679.63
2022-09-23T02:57:55.170Z,98677.94
2022-09-23T02:58:56.990Z,98674.66
2022-09-23T02:59:58.523Z,98680.81
2022-09-23T03:01:21.761Z,98679.09
2022-09-23T03:02:56.313Z,98670.31
2022-09-23T03:04:22.552Z,98686.03
2022-09-23T03:05:37.617Z,98677.00
2022-09-23T03:07:02.860Z,98672.09
2022-09-23T03:08:22.718Z,98671.34
2022-09-23T03:09:51.440Z,98673.97
2022-09-23T03:11:04.293Z,98677.44
2022-09-23T03:12:43.837Z,98665.47
2022-09-23T03:13:58.525Z,98671.09
2022-09-23T03:15:23.922Z,98668.47
2022-09-23T03:16:37.174Z,98666.19
2022-09-23T03:17:47.780Z,98666.19
2022-09-23T03:18:55.890Z,98665.63
2022-09-23T03:20:23.927Z,98669.50
2022-09-23T03:21:35.509Z,98667.66
2022-09-23T03:22:47.521Z,98675.22
2022-09-23T03:23:50.300Z,98670.09
2022-09-23T03:24:54.346Z,98669.66
2022-09-23T03:25:59.636Z,98666.41
2022-09-23T03:27:05.440Z,98670.09
2022-09-23T03:28:08.596Z,98664.41
2022-09-23T03:29:12.347Z,98664.13
2022-09-23T03:30:14.369Z,98661.81
2022-09-23T03:31:17.402Z,98666.44
2022-09-23T03:32:23.338Z,98659.53
2022-09-23T03:33:28.839Z,98660.91
2022-09-23T03:34:33.864Z,98656.94
2022-09-23T03:36:01.761Z,98666.16
2022-09-23T03:37:11.260Z,98659.81
2022-09-23T03:38:17.774Z,98662.59
2022-09-23T03:39:28.272Z,98654.28
2022-09-23T03:40:35.304Z,98659.06
2022-09-23T03:41:41.108Z,98659.81
2022-09-23T03:42:42.928Z,98649.81
2022-09-23T03:43:45.864Z,98656.41
2022-09-23T03:44:48.340Z,98654.28
2022-09-23T03:45:53.519Z,98650.13
2022-09-23T03:46:59.297Z,98649.84
2022-09-23T03:48:01.578Z,98650.94
2022-09-23T03:49:16.328Z,98653.81
2022-09-23T03:50:18.000Z,98658.13
2022-09-23T03:51:23.741Z,98654.28
2022-09-23T03:52:26.716Z,98650.16
2022-09-23T03:53:28.129Z,98650.31
2022-09-23T03:54:29.988Z,98649.25
2022-09-23T03:55:32.247Z,98644.94
2022-09-23T03:56:33.675Z,98649.06
2022-09-23T03:57:36.282Z,98645.22
2022-09-23T03:58:38.134Z,98647.72
2022-09-23T03:59:40.303Z,98642.78
2022-09-23T04:00:42.398Z,98648.31
2022-09-23T04:01:44.222Z,98644.34
2022-09-23T04:02:46.044Z,98652.47
2022-09-23T04:03:47.528Z,98646.31
2022-09-23T04:04:49.036Z,98641.41
2022-09-23T04:05:50.439Z,98638.34
2022-09-23T04:06:52.009Z,98640.78
2022-09-23T04:07:53.807Z,98640.94
2022-09-23T04:08:55.248Z,98643.69
2022-09-23T04:09:56.853Z,98640.88
2022-09-23T04:11:03.659Z,98642.84
2022-09-23T04:12:05.995Z,98645.53
2022-09-23T04:13:07.443Z,98641.84
2022-09-23T04:14:08.928Z,98643.69
2022-09-23T04:15:10.738Z,98638.88
2022-09-23T04:16:12.252Z,98635.16
2022-09-23T04:17:14.417Z,98635.66
2022-09-23T04:18:15.815Z,98641.47
2022-09-23T04:19:17.400Z,98636.69
2022-09-23T04:20:19.247Z,98647.31
2022-09-23T04:21:20.702Z,98633.19
2022-09-23T04:22:22.526Z,98626.22
2022-09-23T04:23:25.056Z,98629.47
2022-09-23T04:24:26.634Z,98628.72
2022-09-23T04:25:28.048Z,98632.28
2022-09-23T04:26:30.193Z,98630.91
2022-09-23T04:27:36.897Z,98624.63
2022-09-23T04:28:39.154Z,98631.72
2022-09-23T04:29:40.562Z,98628.03
2022-09-23T04:30:43.848Z,98634.50
2022-09-23T04:31:45.368Z,98633.41
2022-09-23T04:32:47.172Z,98631.72
2022-09-23T04:33:48.575Z,98627.59
2022-09-23T04:34:50.052Z,98632.19
2022-09-23T04:35:52.178Z,98635.28
2022-09-23T04:36:53.650Z,98633.75
2022-09-23T04:37:55.398Z,98628.50
2022-09-23T04:38:57.148Z,98628.81
2022-09-23T04:39:58.636Z,98625.09
2022-09-23T04:41:00.300Z,98629.88
2022-09-23T04:42:01.741Z,98628.19
2022-09-23T04:43:03.231Z,98624.81
2022-09-23T04:44:04.995Z,98632.50
2022-09-23T04:45:06.955Z,98631.41
2022-09-23T04:46:11.145Z,98621.44
2022-09-23T04:47:13.009Z,98623.75
2022-09-23T04:48:14.414Z,98627.41
2022-09-23T04:49:16.470Z,98626.78
2022-09-23T04:50:18.180Z,98621.56
2022-09-23T04:51:22.030Z,98621.72
2022-09-23T04:52:23.811Z,98623.09
2022-09-23T04:53:25.525Z,98622.66
2022-09-23T04:54:27.389Z,98626.03
2022-09-23T04:55:28.819Z,98622.81
2022-09-23T04:56:34.182Z,98621.28
2022-09-23T04:57:35.988Z,98621.72
2022-09-23T04:58:38.596Z,98621.41
2022-09-23T04:59:41.355Z,98620.03
2022-09-23T05:00:42.929Z,98625.88
2022-09-23T05:01:44.789Z,98626.19
2022-09-23T05:02:47.900Z,98628.19
2022-09-23T05:03:49.244Z,98626.19
2022-09-23T05:04:50.697Z,98624.94
2022-09-23T05:05:52.413Z,98623.75
2022-09-23T05:06:54.519Z,98627.28
2022-09-23T05:07:55.955Z,98628.34
2022-09-23T05:08:58.779Z,98619.88
2022-09-23T05:10:00.198Z,98630.19
2022-09-23T05:11:06.758Z,98626.19
2022-09-23T05:12:08.234Z,98628.34
2022-09-23T05:13:09.656Z,98624.03
2022-09-23T05:14:11.663Z,98620.97
2022-09-23T05:15:16.083Z,98629.09
2022-09-23T05:16:18.348Z,98630.81
2022-09-23T05:17:21.415Z,98631.41
2022-09-23T05:18:22.902Z,98627.59
2022-09-23T05:19:24.410Z,98623.56
2022-09-23T05:20:26.010Z,98626.81
2022-09-23T05:21:29.007Z,98627.09
2022-09-23T05:22:30.976Z,98629.09
2022-09-23T05:23:33.310Z,98630.78
2022-09-23T05:24:34.717Z,98632.19
2022-09-23T05:25:38.337Z,98633.88
2022-09-23T05:26:40.162Z,98630.47
2022-09-23T05:27:42.271Z,98628.94
2022-09-23T05:28:43.782Z,98633.41
2022-09-23T05:29:45.346Z,98627.38
2022-09-23T05:30:46.841Z,98635.38
2022-09-23T05:31:48.257Z,98630.19
2022-09-23T05:32:50.030Z,98638.34
2022-09-23T05:33:54.744Z,98640.81
2022-09-23T05:34:56.206Z,98635.88
2022-09-23T05:35:57.972Z,98634.97
2022-09-23T05:36:59.619Z,98644.16
2022-09-23T05:38:01.019Z,98639.88
2022-09-23T05:39:03.722Z,98644.81
2022-09-23T05:40:05.745Z,98637.72
2022-09-23T05:41:09.172Z,98648.63
2022-09-23T05:42:12.768Z,98634.94
2022-09-23T05:43:14.277Z,98639.09
2022-09-23T05:44:15.866Z,98634.81
2022-09-23T05:45:17.687Z,98636.34
2022-09-23T05:46:24.331Z,98635.72
2022-09-23T05:47:26.099Z,98641.41
2022-09-23T05:48:27.626Z,98637.84
2022-09-23T05:49:48.381Z,98638.28
2022-09-23T05:50:51.413Z,98635.66
2022-09-23T05:51:52.871Z,98634.31
2022-09-23T05:52:54.957Z,98632.75
2022-09-23T05:53:58.325Z,98628.44
2022-09-23T05:54:59.887Z,98637.97
2022-09-23T05:56:01.645Z,98641.97
2022-09-23T05:57:04.995Z,98643.47
2022-09-23T05:58:06.981Z,98647.13
2022-09-23T05:59:08.537Z,98643.41
2022-09-23T06:00:10.742Z,98643.69
2022-09-23T06:01:14.967Z,98658.94
2022-09-23T06:02:16.947Z,98648.75
2022-09-23T06:03:20.460Z,98649.50
2022-09-23T06:04:22.031Z,98655.00
2022-09-23T06:05:23.566Z,98645.63
2022-09-23T06:06:42.430Z,98641.75
2022-09-23T06:07:43.856Z,98645.50
2022-09-23T06:08:46.679Z,98643.19
2022-09-23T06:09:48.478Z,98641.00
2022-09-23T06:10:54.360Z,98644.66
2022-09-23T06:11:58.989Z,98644.00
2022-09-23T06:13:00.652Z,98648.44
2022-09-23T06:14:03.270Z,98634.78
2022-09-23T06:15:05.320Z,98645.34
2022-09-23T06:16:08.501Z,98637.84
2022-09-23T06:17:09.984Z,98647.03
2022-09-23T06:18:12.219Z,98643.59
2022-09-23T06:19:13.609Z,98646.34
2022-09-23T06:20:15.081Z,98640.53
2022-09-23T06:21:17.948Z,98647.56
2022-09-23T06:22:19.707Z,98650.00
2022-09-23T06:23:24.614Z,98643.56
2022-09-23T06:24:31.044Z,98646.88
2022-09-23T06:25:34.150Z,98645.13
2022-09-23T06:26:37.798Z,98640.19
2022-09-23T06:27:39.664Z,98639.34
2022-09-23T06:28:43.017Z,98641.09
2022-09-23T06:29:44.459Z,98641.75
2022-09-23T06:30:45.933Z,98643.94
2022-09-23T06:31:49.514Z,98646.34
2022-09-23T06:32:52.400Z,98640.09
2022-09-23T06:34:06.613Z,98652.56
2022-09-23T06:35:22.663Z,98641.56
2022-09-23T06:36:40.106Z,98654.47
2022-09-23T06:37:43.259Z,98648.88
2022-09-23T06:38:45.189Z,98645.25
2022-09-23T06:39:46.604Z,98650.50
2022-09-23T06:40:55.878Z,98654.44
2022-09-23T06:41:57.350Z,98650.38
2022-09-23T06:43:00.953Z,98650.06
2022-09-23T06:44:02.769Z,98655.41
2022-09-23T06:45:04.440Z,98650.16
2022-09-23T06:46:07.549Z,98644.47
2022-09-23T06:47:09.229Z,98649.63
2022-09-23T06:48:11.791Z,98652.59
2022-09-23T06:49:13.619Z,98654.88
2022-09-23T06:50:15.283Z,98645.13
2022-09-23T06:51:19.676Z,98651.63
2022-09-23T06:52:21.235Z,98646.00
2022-09-23T06:53:25.607Z,98641.09
2022-09-23T06:54:29.092Z,98648.22
2022-09-23T06:55:33.903Z,98649.41
2022-09-23T06:56:39.225Z,98651.03
2022-09-23T06:57:41.526Z,98640.44
2022-09-23T06:58:43.888Z,98636.81
2022-09-23T06:59:45.497Z,98645.56
2022-09-23T07:00:46.897Z,98643.28
2022-09-23T07:01:48.605Z,98643.16
2022-09-23T07:02:50.228Z,98640.41
2022-09-23T07:03:52.421Z,98643.91
2022-09-23T07:04:56.557Z,98636.13
2022-09-23T07:05:59.245Z,98644.88
2022-09-23T07:07:00.728Z,98633.69
2022-09-23T07:08:03.054Z,98643.78
2022-09-23T07:09:06.615Z,98645.34
2022-09-23T07:10:08.332Z,98636.03
2022-09-23T07:11:12.263Z,98636.53
2022-09-23T07:12:13.968Z,98636.84
2022-09-23T07:13:16.407Z,98635.41
2022-09-23T07:14:17.978Z,98637.53
2022-09-23T07:15:19.422Z,98640.25
2022-09-23T07:16:21.359Z,98635.41
2022-09-23T07:17:24.440Z,98640.78
2022-09-23T07:18:26.444Z,98640.84
2022-09-23T07:19:27.895Z,98633.31
2022-09-23T07:20:29.628Z,98641.72
2022-09-23T07:21:31.471Z,98639.19
2022-09-23T07:22:32.997Z,98646.06
2022-09-23T07:23:34.981Z,98645.78
2022-09-23T07:24:36.964Z,98641.28
2022-09-23T07:25:38.749Z,98643.16
2022-09-23T07:26:44.875Z,98635.72
2022-09-23T07:27:48.992Z,98641.56
2022-09-23T07:29:04.863Z,98642.31
2022-09-23T07:30:10.641Z,98643.91
2022-09-23T07:31:25.629Z,98643.91
2022-09-23T07:32:42.165Z,98645.19
2022-09-23T07:33:48.624Z,98652.53
2022-09-23T07:34:50.223Z,98648.19
2022-09-23T07:35:51.698Z,98653.88
2022-09-23T07:36:54.253Z,98653.34
2022-09-23T07:37:55.758Z,98657.69
2022-09-23T07:39:03.141Z,98661.31
2022-09-23T07:40:05.079Z,98656.31
2022-09-23T07:41:10.277Z,98665.66
2022-09-23T07:42:13.307Z,98663.25
2022-09-23T07:43:14.776Z,98653.97
2022-09-23T07:44:16.317Z,98663.13
2022-09-23T07:45:18.303Z,98665.63
2022-09-23T07:46:19.790Z,98661.66
2022-09-23T07:47:21.360Z,98668.81
2022-09-23T07:48:23.183Z,98666.88
2022-09-23T07:49:25.836Z,98665.25
2022-09-23T07:50:27.949Z,98666.28
2022-09-23T07:51:36.109Z,98681.69
2022-09-23T07:52:38.698Z,98679.22
2022-09-23T07:53:40.585Z,98676.38
2022-09-23T07:54:41.983Z,98678.66
2022-09-23T07:55:43.557Z,98678.47
2022-09-23T07:56:46.114Z,98673.78
2022-09-23T07:57:47.534Z,98672.97
2022-09-23T07:59:00.138Z,98675.09
2022-09-23T08:00:02.835Z,98664.25
2022-09-23T08:01:10.245Z,98667.13
2022-09-23T08:02:12.267Z,98660.88
2022-09-23T08:03:14.772Z,98660.34
2022-09-23T08:04:23.406Z,98652.94
2022-09-23T08:05:25.985Z,98647.78
2022-09-23T08:06:27.910Z,98642.59
2022-09-23T08:07:29.382Z,98648.94
2022-09-23T08:08:31.315Z,98649.63
2022-09-23T08:09:39.383Z,98647.16
2022-09-23T08:10:40.886Z,98651.38
2022-09-23T08:11:42.481Z,98654.59
2022-09-23T08:12:44.026Z,98649.31
2022-09-23T08:13:45.895Z,98652.66
2022-09-23T08:14:47.329Z,98651.06
2022-09-23T08:15:53.284Z,98649.72
2022-09-23T08:16:57.099Z,98646.19
2022-09-23T08:17:59.879Z,98656.09
2022-09-23T08:19:02.585Z,98647.66
2022-09-23T08:20:04.154Z,98655.53
2022-09-23T08:21:05.839Z,98644.94
2022-09-23T08:22:07.314Z,98633.97
2022-09-23T08:23:09.513Z,98641.72
2022-09-23T08:24:19.567Z,98630.94
2022-09-23T08:25:22.673Z,98636.81
2022-09-23T08:26:24.688Z,98635.25
2022-09-23T08:27:28.059Z,98627.44
2022-09-23T08:28:30.143Z,98628.66
2022-09-23T08:29:31.567Z,98624.25
2022-09-23T08:30:33.102Z,98622.38
2022-09-23T08:31:34.707Z,98619.09
2022-09-23T08:32:36.143Z,98620.03
2022-09-23T08:33:37.633Z,98621.25
2022-09-23T08:34:39.450Z,98625.00
2022-09-23T08:35:41.347Z,98625.91
2022-09-23T08:36:43.106Z,98621.38
2022-09-23T08:37:44.623Z,98623.72
2022-09-23T08:38:46.087Z,98622.22
2022-09-23T08:39:47.609Z,98626.59
2022-09-23T08:40:50.304Z,98617.53
2022-09-23T08:42:07.529Z,98618.28
2022-09-23T08:43:42.732Z,98618.88
2022-09-23T08:44:48.973Z,98620.06
2022-09-23T08:45:51.919Z,98616.69
2022-09-23T08:47:20.989Z,98617.44
2022-09-23T08:48:47.609Z,98622.28
2022-09-23T08:50:12.055Z,98621.97
2022-09-23T08:51:24.053Z,98620.31
2022-09-23T08:52:35.647Z,98612.19
2022-09-23T08:53:38.221Z,98614.59
2022-09-23T08:54:39.969Z,98614.28
2022-09-23T08:55:48.854Z,98613.63
2022-09-23T08:56:52.339Z,98611.75
2022-09-23T08:58:24.571Z,98617.09
2022-09-23T08:59:38.321Z,98601.19
2022-09-23T09:00:42.249Z,98606.47
2022-09-23T09:01:45.614Z,98610.00
2022-09-23T09:02:48.345Z,98604.03
2022-09-23T09:03:54.833Z,98605.31
2022-09-23T09:05:05.750Z,98605.34
2022-09-23T09:06:16.712Z,98606.19
2022-09-23T09:07:38.672Z,98612.00
2022-09-23T09:08:42.065Z,98597.50
2022-09-23T09:09:51.210Z,98597.91
2022-09-23T09:10:55.206Z,98599.84
2022-09-23T09:12:24.003Z,98592.69
2022-09-23T09:13:31.899Z,98601.69
2022-09-23T09:14:47.756Z,98587.69
2022-09-23T09:16:16.186Z,98593.75
2022-09-23T09:17:48.197Z,98590.09
2022-09-23T09:18:55.580Z,98593.09
2022-09-23T09:20:18.921Z,98585.47
2022-09-23T09:21:25.056Z,98586.34
2022-09-23T09:22:33.248Z,98584.13
2022-09-23T09:23:38.799Z,98584.91
2022-09-23T09:24:40.248Z,98585.72
2022-09-23T09:25:47.919Z,98587.38
2022-09-23T09:26:49.602Z,98587.31
2022-09-23T09:27:52.575Z,98585.81
2022-09-23T09:29:17.126Z,98576.88
2022-09-23T09:30:25.600Z,98585.72
2022-09-23T09:31:39.897Z,98592.19
2022-09-23T09:32:48.548Z,98586.50
2022-09-23T09:33:58.040Z,98583.88
2022-09-23T09:35:09.252Z,98588.78
2022-09-23T09:36:40.150Z,98586.06
2022-09-23T09:37:47.435Z,98590.91
2022-09-23T09:38:51.213Z,98588.69
2022-09-23T09:39:52.667Z,98581.94
2022-09-23T09:40:57.008Z,98586.13
2022-09-23T09:41:59.621Z,98575.53
2022-09-23T09:43:05.749Z,98572.16
2022-09-23T09:44:23.477Z,98568.75
2022-09-23T09:45:42.439Z,98569.13
2022-09-23T09:47:28.409Z,98563.81
2022-09-23T09:48:38.874Z,98554.31
2022-09-23T09:50:06.732Z,98559.66
2022-09-23T09:51:21.482Z,98555.47
2022-09-23T09:52:29.906Z,98553.19
2022-09-23T09:53:35.983Z,98566.09
2022-09-23T09:54:39.169Z,98561.56
2022-09-23T09:55:41.422Z,98561.94
2022-09-23T09:56:44.540Z,98557.38
2022-09-23T09:57:52.197Z,98553.22
2022-09-23T09:59:01.992Z,98556.63
2022-09-23T10:00:21.825Z,98550.94
2022-09-23T10:01:31.168Z,98554.75
2022-09-23T10:02:37.274Z,98547.13
2022-09-23T10:03:43.770Z,98542.97
2022-09-23T10:04:45.479Z,98546.38
2022-09-23T10:05:54.372Z,98544.47
2022-09-23T10:07:15.916Z,98544.47
2022-09-23T10:08:23.357Z,98545.63
2022-09-23T10:09:33.868Z,98545.63
2022-09-23T10:10:35.328Z,98548.25
2022-09-23T10:11:37.751Z,98545.59
2022-09-23T10:12:47.374Z,98542.19
2022-09-23T10:14:06.354Z,98544.09
2022-09-23T10:15:28.352Z,98546.72
2022-09-23T10:16:32.094Z,98539.84
2022-09-23T10:17:34.484Z,98531.13
2022-09-23T10:18:38.302Z,98547.50
2022-09-23T10:19:45.776Z,98539.16
2022-09-23T10:20:48.188Z,98531.19
2022-09-23T10:21:58.602Z,98544.13
2022-09-23T10:23:07.149Z,98534.16
2022-09-23T10:24:20.876Z,98537.13
2022-09-23T10:25:27.555Z,98543.50
2022-09-23T10:26:37.513Z,98532.03
2022-09-23T10:27:39.666Z,98535.03
2022-09-23T10:29:01.083Z,98531.69
2022-09-23T10:30:22.591Z,98534.88
2022-09-23T10:31:28.265Z,98542.41
2022-09-23T10:32:36.346Z,98531.00
2022-09-23T10:33:47.347Z,98526.34
2022-09-23T10:34:53.206Z,98527.00
2022-09-23T10:35:57.220Z,98523.00
2022-09-23T10:37:31.729Z,98523.41
2022-09-23T10:38:33.294Z,98526.78
2022-09-23T10:39:53.582Z,98523.34
2022-09-23T10:41:15.396Z,98524.41
2022-09-23T10:43:15.720Z,98522.19
2022-09-23T10:44:52.997Z,98523.75
2022-09-23T10:46:20.746Z,98525.03
2022-09-23T10:47:40.631Z,98514.06
2022-09-23T10:48:53.642Z,98511.22
2022-09-23T10:50:08.199Z,98509.75
2022-09-23T10:51:55.932Z,98514.59
2022-09-23T10:53:05.071Z,98512.22
2022-09-23T10:54:35.908Z,98504.91
2022-09-23T10:56:02.954Z,98498.00
2022-09-23T10:57:38.085Z,98499.09
2022-09-23T10:59:17.951Z,98498.22
2022-09-23T11:00:28.508Z,98497.00
2022-09-23T11:01:39.663Z,98499.28
2022-09-23T11:02:59.832Z,98497.78
2022-09-23T11:04:25.992Z,98501.97
2022-09-23T11:05:41.229Z,98497.56
2022-09-23T11:07:00.729Z,98487.78
2022-09-23T11:08:46.014Z,98490.66
2022-09-23T11:10:11.383Z,98492.84
2022-09-23T11:11:39.829Z,98492.41
2022-09-23T11:12:53.940Z,98491.84
2022-09-23T11:14:04.356Z,98486.75
2022-09-23T11:15:31.240Z,98485.53
2022-09-23T11:16:47.618Z,98492.03
2022-09-23T11:17:51.690Z,98493.16
2022-09-23T11:19:11.875Z,98481.44
2022-09-23T11:20:35.232Z,98486.16
2022-09-23T11:21:39.938Z,98492.28
2022-09-23T11:23:09.600Z,98491.75
2022-09-23T11:24:28.115Z,98480.81
2022-09-23T11:25:59.221Z,98482.72
2022-09-23T11:27:21.671Z,98474.69
2022-09-23T11:29:00.547Z,98477.28
2022-09-23T11:30:08.247Z,98473.78
2022-09-23T11:31:59.928Z,98473.78
2022-09-23T11:33:14.465Z,98474.94
2022-09-23T11:34:45.911Z,98474.53
2022-09-23T11:36:02.128Z,98465.72
2022-09-23T11:37:04.052Z,98466.16
2022-09-23T11:38:12.133Z,98459.78
2022-09-23T11:39:29.566Z,98459.38
2022-09-23T11:40:34.997Z,98455.72
2022-09-23T11:41:39.608Z,98454.63
2022-09-23T11:42:54.032Z,98449.63
2022-09-23T11:44:07.362Z,98454.53
2022-09-23T11:45:17.418Z,98458.03
2022-09-23T11:46:32.523Z,98449.03
2022-09-23T11:47:43.553Z,98452.03
2022-09-23T11:48:57.167Z,98457.34
2022-09-23T11:50:44.306Z,98443.50
2022-09-23T11:52:03.515Z,98440.75
2022-09-23T11:53:18.210Z,98435.41
2022-09-23T11:54:22.191Z,98436.50
2022-09-23T11:55:32.372Z,98434.56
2022-09-23T11:56:45.296Z,98443.28
2022-09-23T11:57:53.049Z,98439.19
2022-09-23T11:59:15.975Z,98435.81
2022-09-23T12:00:21.335Z,98437.22
2022-09-23T12:01:37.509Z,98436.34
2022-09-23T12:03:09.548Z,98432.50
2022-09-23T12:04:33.111Z,98438.31
2022-09-23T12:05:39.874Z,98425.97
2022-09-23T12:07:03.479Z,98438.47
2022-09-23T12:08:07.756Z,98427.00
2022-09-23T12:09:57.623Z,98433.81
2022-09-23T12:11:16.148Z,98429.13
2022-09-23T12:13:05.079Z,98430.31
2022-09-23T12:14:23.694Z,98425.84
2022-09-23T12:15:48.786Z,98424.22
2022-09-23T12:17:19.733Z,98424.44
2022-09-23T12:18:54.014Z,98426.16
2022-09-23T12:20:19.662Z,98419.91
2022-09-23T12:21:48.711Z,98425.41
2022-09-23T12:23:07.245Z,98426.34
2022-09-23T12:24:41.670Z,98420.91
2022-09-23T12:25:53.308Z,98420.19
2022-09-23T12:26:59.481Z,98411.09
2022-09-23T12:28:06.142Z,98415.28
2022-09-23T12:29:13.785Z,98414.06
2022-09-23T12:30:19.624Z,98408.38
2022-09-23T12:31:30.642Z,98412.13
2022-09-23T12:32:33.061Z,98407.00
2022-09-23T12:33:35.776Z,98399.56
2022-09-23T12:34:49.092Z,98399.41
2022-09-23T12:35:53.966Z,98406.53
2022-09-23T12:37:05.602Z,98402.63
2022-09-23T12:38:29.864Z,98408.41
2022-09-23T12:39:34.547Z,98404.75
2022-09-23T12:40:44.036Z,98397.34
2022-09-23T12:41:53.953Z,98399.03
2022-09-23T12:42:55.876Z,98398.19
2022-09-23T12:44:23.249Z,98395.16
2022-09-23T12:45:34.907Z,98394.09
2022-09-23T12:46:36.608Z,98398.94
2022-09-23T12:47:39.718Z,98392.94
2022-09-23T12:49:03.601Z,98386.19
2022-09-23T12:50:43.402Z,98384.97
2022-09-23T12:52:10.717Z,98380.34
2022-09-23T12:53:33.928Z,98382.97
2022-09-23T12:54:35.408Z,98384.00
2022-09-23T12:55:39.679Z,98374.81
2022-09-23T12:56:41.049Z,98377.38
2022-09-23T12:57:42.692Z,98382.84
2022-09-23T12:58:44.176Z,98378.28
2022-09-23T12:59:51.321Z,98378.47
2022-09-23T13:01:15.743Z,98370.41
2022-09-23T13:03:09.058Z,98374.59
2022-09-23T13:04:50.732Z,98373.38
2022-09-23T13:06:16.629Z,98375.72
2022-09-23T13:07:25.367Z,98381.72
2022-09-23T13:08:26.937Z,98376.97
2022-09-23T13:09:37.664Z,98375.59
2022-09-23T13:10:49.446Z,98376.50
2022-09-23T13:11:53.369Z,98379.09
2022-09-23T13:12:56.535Z,98370.75
2022-09-23T13:14:02.379Z,98369.88
2022-09-23T13:15:12.171Z,98369.75
2022-09-23T13:16:37.076Z,98376.78
2022-09-23T13:17:40.173Z,98373.63
2022-09-23T13:19:05.477Z,98366.56
2022-09-23T13:20:22.202Z,98368.47
2022-09-23T13:21:42.560Z,98362.34
2022-09-23T13:22:50.028Z,98367.75
2022-09-23T13:24:18.207Z,98358.28
2022-09-23T13:25:24.035Z,98357.59
2022-09-23T13:26:25.622Z,98354.84
2022-09-23T13:27:32.771Z,98346.72
2022-09-23T13:28:43.323Z,98360.34